createdAt,value
2018-09-06T00:04:37.527Z,22.40
2018-09-06T00:09:40.819Z,22.20
2018-09-06T00:14:44.109Z,22.40
2018-09-06T00:19:47.405Z,22.10
2018-09-06T00:24:50.683Z,22.00
2018-09-06T00:29:54.013Z,22.00
2018-09-06T00:34:57.339Z,21.90
2018-09-06T00:40:00.618Z,22.10
2018-09-06T00:45:04.285Z,21.90
2018-09-06T00:50:12.886Z,22.10
2018-09-06T00:55:16.540Z,21.70
2018-09-06T01:00:19.880Z,21.90
2018-09-06T01:05:23.280Z,21.70
2018-09-06T01:10:26.701Z,22.00
2018-09-06T01:15:29.976Z,21.90
2018-09-06T01:20:33.566Z,21.90
2018-09-06T01:25:42.421Z,21.80
2018-09-06T01:30:45.913Z,22.00
2018-09-06T01:35:54.789Z,21.80
2018-09-06T01:40:58.380Z,21.90
2018-09-06T01:46:02.038Z,21.50
2018-09-06T01:51:05.585Z,21.90
2018-09-06T01:56:09.159Z,21.80
2018-09-06T02:01:12.707Z,21.80
2018-09-06T02:06:16.286Z,21.70
2018-09-06T02:11:19.896Z,21.60
2018-09-06T02:16:23.538Z,21.50
2018-09-06T02:21:27.025Z,21.30
2018-09-06T02:31:39.940Z,21.50
2018-09-06T02:36:43.522Z,21.50
2018-09-06T02:41:47.205Z,21.30
2018-09-06T02:46:50.777Z,21.50
2018-09-06T02:51:54.353Z,21.40
2018-09-06T02:56:57.883Z,21.50
2018-09-06T03:02:01.444Z,21.30
2018-09-06T03:07:04.951Z,21.20
2018-09-06T03:12:09.630Z,21.30
2018-09-06T03:17:13.297Z,21.40
2018-09-06T03:22:16.949Z,21.20
2018-09-06T03:27:20.676Z,21.20
2018-09-06T03:32:24.141Z,21.20
2018-09-06T03:37:27.753Z,21.20
2018-09-06T03:42:31.321Z,21.30
2018-09-06T03:47:36.517Z,21.40
2018-09-06T03:52:40.633Z,21.00
2018-09-06T03:57:44.262Z,21.10
2018-09-06T04:02:47.775Z,21.10
2018-09-06T04:07:51.513Z,21.10
2018-09-06T04:12:54.996Z,21.20
2018-09-06T04:18:02.428Z,21.10
2018-09-06T04:23:23.608Z,21.10
2018-09-06T04:28:29.462Z,21.10
2018-09-06T04:33:46.295Z,21.00
2018-09-06T04:38:59.166Z,21.10
2018-09-06T04:44:02.814Z,21.10
2018-09-06T04:49:06.537Z,21.20
2018-09-06T04:54:41.057Z,21.00
2018-09-06T04:59:46.001Z,21.10
2018-09-06T05:04:50.248Z,21.00
2018-09-06T05:09:53.930Z,20.80
2018-09-06T05:14:58.753Z,20.80
2018-09-06T05:20:03.905Z,21.00
2018-09-06T05:25:07.341Z,21.20
2018-09-06T05:30:10.777Z,20.90
2018-09-06T05:35:14.556Z,20.80
2018-09-06T05:40:18.277Z,21.00
2018-09-06T05:45:21.697Z,21.00
2018-09-06T05:50:26.676Z,20.90
2018-09-06T05:55:30.080Z,20.90
2018-09-06T06:00:38.934Z,20.90
2018-09-06T06:05:44.879Z,21.00
2018-09-06T06:10:48.394Z,20.70
2018-09-06T06:15:52.075Z,21.20
2018-09-06T06:20:55.490Z,21.00
2018-09-06T06:25:59.041Z,21.00
2018-09-06T06:31:02.444Z,21.30
2018-09-06T06:36:06.024Z,21.00
2018-09-06T06:41:09.420Z,21.10
2018-09-06T06:46:12.904Z,21.30
2018-09-06T06:51:16.341Z,21.30
2018-09-06T06:56:19.841Z,21.20
2018-09-06T07:01:23.129Z,21.20
2018-09-06T07:06:26.397Z,21.20
2018-09-06T07:11:30.780Z,21.30
2018-09-06T07:16:34.198Z,21.50
2018-09-06T07:21:37.569Z,21.40
2018-09-06T07:26:40.963Z,21.30
2018-09-06T07:31:44.347Z,21.50
2018-09-06T07:36:47.820Z,21.50
2018-09-06T07:41:51.214Z,21.50
2018-09-06T07:46:54.610Z,21.60
2018-09-06T07:51:57.998Z,21.60
2018-09-06T07:57:01.461Z,21.70
2018-09-06T08:02:05.753Z,21.60
2018-09-06T08:07:09.215Z,21.90
2018-09-06T08:12:12.851Z,21.80
2018-09-06T08:17:16.163Z,21.90
2018-09-06T08:22:19.536Z,22.00
2018-09-06T08:27:22.926Z,22.10
2018-09-06T08:32:26.328Z,21.90
2018-09-06T08:37:29.746Z,22.20
2018-09-06T08:42:33.120Z,22.10
2018-09-06T08:47:36.595Z,22.20
2018-09-06T08:52:39.956Z,22.10
2018-09-06T08:57:43.400Z,22.30
2018-09-06T09:02:46.953Z,22.30
2018-09-06T09:07:50.248Z,22.50
2018-09-06T09:12:53.625Z,22.40
2018-09-06T09:17:57.046Z,22.60
2018-09-06T09:23:00.447Z,22.80
2018-09-06T09:28:03.709Z,22.50
2018-09-06T09:33:07.225Z,22.50
2018-09-06T09:38:10.612Z,22.90
2018-09-06T09:43:13.882Z,23.10
2018-09-06T09:48:17.135Z,22.70
2018-09-06T09:53:20.404Z,22.90
2018-09-06T09:58:23.743Z,22.90
2018-09-06T10:03:33.003Z,22.90
2018-09-06T10:08:41.701Z,23.10
2018-09-06T10:13:45.054Z,23.50
2018-09-06T10:18:48.484Z,23.20
2018-09-06T10:23:55.288Z,23.10
2018-09-06T10:28:58.638Z,23.30
2018-09-06T10:34:02.077Z,23.10
2018-09-06T10:39:07.849Z,23.30
2018-09-06T10:44:11.248Z,23.30
2018-09-06T10:49:14.620Z,23.50
2018-09-06T10:54:18.213Z,23.40
2018-09-06T10:59:21.469Z,23.50
2018-09-06T11:04:25.110Z,23.50
2018-09-06T11:09:28.534Z,23.60
2018-09-06T11:14:32.009Z,23.60
2018-09-06T11:19:35.393Z,23.70
2018-09-06T11:24:38.785Z,23.70
2018-09-06T11:29:42.232Z,23.70
2018-09-06T11:34:45.624Z,23.70
2018-09-06T11:39:49.022Z,23.80
2018-09-06T11:44:52.326Z,23.80
2018-09-06T11:49:55.633Z,23.40
2018-09-06T11:54:59.066Z,23.80
2018-09-06T12:00:02.473Z,23.60
2018-09-06T12:05:05.878Z,23.70
2018-09-06T12:10:09.285Z,23.70
2018-09-06T12:15:12.664Z,23.70
2018-09-06T12:20:16.248Z,23.30
2018-09-06T12:25:19.581Z,23.60
2018-09-06T12:30:23.551Z,23.60
2018-09-06T12:35:27.048Z,23.50
2018-09-06T12:40:30.441Z,23.50
2018-09-06T12:45:33.808Z,23.50
2018-09-06T12:50:37.064Z,23.50
2018-09-06T12:55:40.792Z,23.20
2018-09-06T13:00:44.056Z,23.20
2018-09-06T13:05:47.255Z,23.20
2018-09-06T13:10:50.632Z,23.30
2018-09-06T13:15:53.908Z,23.00
2018-09-06T13:20:57.193Z,23.30
2018-09-06T13:26:00.443Z,23.00
2018-09-06T13:31:03.732Z,22.80
2018-09-06T13:36:06.975Z,22.80
2018-09-06T13:41:10.223Z,23.30
2018-09-06T13:46:13.469Z,23.40
2018-09-06T13:51:16.717Z,23.20
2018-09-06T13:56:20.024Z,23.20
2018-09-06T14:01:23.320Z,23.20
2018-09-06T14:06:26.689Z,23.20
2018-09-06T14:11:29.992Z,23.40
2018-09-06T14:16:33.263Z,22.70
2018-09-06T14:21:36.493Z,23.10
2018-09-06T14:26:39.996Z,23.00
2018-09-06T14:31:43.525Z,23.20
2018-09-06T14:36:46.875Z,23.30
2018-09-06T14:41:50.198Z,22.90
2018-09-06T14:46:53.809Z,23.00
2018-09-06T14:51:57.153Z,23.50
2018-09-06T14:57:00.504Z,23.40
2018-09-06T15:02:03.833Z,23.20
2018-09-06T15:07:07.137Z,23.20
2018-09-06T15:12:10.436Z,23.20
2018-09-06T15:17:20.300Z,23.00
2018-09-06T15:22:24.521Z,23.20
2018-09-06T15:27:27.826Z,23.40
2018-09-06T15:32:31.703Z,23.30
2018-09-06T15:37:35.026Z,23.30
2018-09-06T15:42:38.328Z,23.30
2018-09-06T15:47:41.559Z,23.30
2018-09-06T15:52:44.836Z,23.30
2018-09-06T15:57:48.073Z,23.10
2018-09-06T16:02:51.304Z,23.30
2018-09-06T16:07:54.589Z,23.30
2018-09-06T16:12:57.823Z,22.90
2018-09-06T16:18:02.044Z,23.30
2018-09-06T16:23:06.331Z,23.40
2018-09-06T16:28:10.389Z,23.40
2018-09-06T16:33:13.622Z,23.40
2018-09-06T16:38:16.945Z,23.40
2018-09-06T16:43:20.151Z,23.40
2018-09-06T16:48:23.388Z,23.30
2018-09-06T16:53:26.635Z,23.40
2018-09-06T16:58:29.886Z,23.40
2018-09-06T17:03:33.128Z,23.30
2018-09-06T17:08:36.376Z,23.00
2018-09-06T17:13:39.634Z,23.40
2018-09-06T17:18:42.955Z,23.50
2018-09-06T17:23:46.183Z,23.50
2018-09-06T17:28:49.479Z,23.20
2018-09-06T17:33:52.726Z,23.40
2018-09-06T17:38:56.069Z,23.50
2018-09-06T17:43:59.273Z,23.30
2018-09-06T17:49:02.721Z,23.30
2018-09-06T17:54:06.047Z,23.30
2018-09-06T17:59:09.296Z,23.10
2018-09-06T18:04:12.524Z,23.00
2018-09-06T18:09:15.817Z,23.30
2018-09-06T18:14:19.072Z,23.20
2018-09-06T18:19:22.427Z,23.10
2018-09-06T18:24:25.727Z,23.30
2018-09-06T18:29:28.974Z,22.90
2018-09-06T18:34:32.255Z,23.00
2018-09-06T18:39:35.595Z,22.90
2018-09-06T18:44:38.839Z,22.90
2018-09-06T18:49:42.174Z,22.90
2018-09-06T18:54:45.392Z,22.80
2018-09-06T18:59:48.637Z,22.60
2018-09-06T19:04:52.199Z,22.80
2018-09-06T19:09:55.460Z,22.70
2018-09-06T19:14:58.744Z,22.70
2018-09-06T19:20:02.321Z,22.60
2018-09-06T19:25:05.571Z,22.70
2018-09-06T19:30:13.267Z,22.50
2018-09-06T19:35:18.806Z,22.70
2018-09-06T19:40:22.268Z,22.50
2018-09-06T19:45:25.583Z,22.40
2018-09-06T19:50:28.824Z,22.70
2018-09-06T19:55:32.070Z,22.60
2018-09-06T20:00:35.428Z,22.40
2018-09-06T20:05:38.667Z,22.30
2018-09-06T20:10:41.932Z,22.20
2018-09-06T20:15:45.281Z,22.30
2018-09-06T20:20:48.523Z,22.30
2018-09-06T20:25:51.772Z,22.50
2018-09-06T20:30:55.034Z,22.20
2018-09-06T20:35:58.308Z,22.40
2018-09-06T20:41:01.558Z,22.10
2018-09-06T20:46:05.217Z,22.30
2018-09-06T20:51:08.473Z,22.30
2018-09-06T20:56:11.755Z,22.20
2018-09-06T21:01:15.009Z,22.20
2018-09-06T21:06:18.290Z,22.10
2018-09-06T21:11:21.551Z,22.10
2018-09-06T21:16:24.889Z,22.30
2018-09-06T21:21:28.091Z,21.80
2018-09-06T21:26:31.352Z,22.00
2018-09-06T21:31:34.612Z,22.00
2018-09-06T21:36:37.852Z,22.00
2018-09-06T21:41:42.220Z,21.90
2018-09-06T21:46:45.476Z,22.10
2018-09-06T21:51:48.716Z,21.90
2018-09-06T21:56:51.959Z,22.00
2018-09-06T22:01:55.218Z,22.00
2018-09-06T22:06:58.471Z,22.10
2018-09-06T22:12:01.724Z,21.90
2018-09-06T22:17:04.999Z,21.60
2018-09-06T22:22:08.234Z,21.80
2018-09-06T22:27:11.547Z,21.90
2018-09-06T22:32:14.767Z,21.80
2018-09-06T22:37:18.038Z,21.80
2018-09-06T22:42:21.272Z,21.70
2018-09-06T22:47:24.510Z,21.70
2018-09-06T22:52:28.044Z,21.80
2018-09-06T22:57:31.284Z,21.70
2018-09-06T23:02:39.843Z,21.80
2018-09-06T23:07:43.115Z,21.70
2018-09-06T23:12:46.355Z,21.50
2018-09-06T23:17:49.623Z,21.80
2018-09-06T23:22:52.904Z,21.50
2018-09-06T23:27:56.156Z,21.80
2018-09-06T23:32:59.408Z,21.40
2018-09-06T23:38:02.644Z,21.50
2018-09-06T23:43:05.936Z,21.60
2018-09-06T23:48:09.204Z,21.50
2018-09-06T23:53:12.464Z,21.60
2018-09-06T23:58:15.776Z,21.30
